sensor_id;sensor_type;location;lat;lon;timestamp;temperature;humidity
52675;DHT22;38569;52.722;6.440;2022-12-26T00:01:18;8.90;99.90
52675;DHT22;38569;52.722;6.440;2022-12-26T00:03:44;8.90;99.90
52675;DHT22;38569;52.722;6.440;2022-12-26T00:06:15;8.80;99.90
52675;DHT22;38569;52.722;6.440;2022-12-26T00:08:42;8.90;99.90
52675;DHT22;38569;52.722;6.440;2022-12-26T00:11:08;8.90;99.90
52675;DHT22;38569;52.722;6.440;2022-12-26T00:13:33;8.80;99.90
52675;DHT22;38569;52.722;6.440;2022-12-26T00:15:59;8.90;99.90
52675;DHT22;38569;52.722;6.440;2022-12-26T00:18:25;8.90;99.90
52675;DHT22;38569;52.722;6.440;2022-12-26T00:20:50;8.90;99.90
52675;DHT22;38569;52.722;6.440;2022-12-26T00:23:16;8.90;99.90
52675;DHT22;38569;52.722;6.440;2022-12-26T00:25:42;8.90;99.90
52675;DHT22;38569;52.722;6.440;2022-12-26T00:28:07;8.80;99.90
52675;DHT22;38569;52.722;6.440;2022-12-26T00:30:36;8.80;99.90
52675;DHT22;38569;52.722;6.440;2022-12-26T00:33:02;8.80;99.90
52675;DHT22;38569;52.722;6.440;2022-12-26T00:35:28;8.80;99.90
52675;DHT22;38569;52.722;6.440;2022-12-26T00:37:53;8.80;99.90
52675;DHT22;38569;52.722;6.440;2022-12-26T00:40:19;8.70;99.90
52675;DHT22;38569;52.722;6.440;2022-12-26T00:42:45;8.80;99.90
52675;DHT22;38569;52.722;6.440;2022-12-26T00:45:10;8.90;99.90
52675;DHT22;38569;52.722;6.440;2022-12-26T00:47:36;8.90;99.90
52675;DHT22;38569;52.722;6.440;2022-12-26T00:50:02;8.90;99.90
52675;DHT22;38569;52.722;6.440;2022-12-26T00:52:27;8.80;99.90
52675;DHT22;38569;52.722;6.440;2022-12-26T00:54:53;8.90;99.90
52675;DHT22;38569;52.722;6.440;2022-12-26T00:57:19;8.80;99.90
52675;DHT22;38569;52.722;6.440;2022-12-26T00:59:44;8.80;99.90
52675;DHT22;38569;52.722;6.440;2022-12-26T01:02:10;8.80;99.90
52675;DHT22;38569;52.722;6.440;2022-12-26T01:04:55;8.80;99.90
52675;DHT22;38569;52.722;6.440;2022-12-26T01:07:21;8.80;99.90
52675;DHT22;38569;52.722;6.440;2022-12-26T01:09:47;8.80;99.90
52675;DHT22;38569;52.722;6.440;2022-12-26T01:12:12;8.80;99.90
52675;DHT22;38569;52.722;6.440;2022-12-26T01:14:38;8.90;99.90
52675;DHT22;38569;52.722;6.440;2022-12-26T01:17:04;8.90;99.90
52675;DHT22;38569;52.722;6.440;2022-12-26T01:19:29;8.90;99.90
52675;DHT22;38569;52.722;6.440;2022-12-26T01:21:55;8.90;99.90
52675;DHT22;38569;52.722;6.440;2022-12-26T01:24:21;8.90;99.90
52675;DHT22;38569;52.722;6.440;2022-12-26T01:26:46;8.90;99.90
52675;DHT22;38569;52.722;6.440;2022-12-26T01:29:12;8.90;99.90
52675;DHT22;38569;52.722;6.440;2022-12-26T01:31:38;8.90;99.90
52675;DHT22;38569;52.722;6.440;2022-12-26T01:34:04;8.90;99.90
52675;DHT22;38569;52.722;6.440;2022-12-26T01:36:29;8.80;99.90
52675;DHT22;38569;52.722;6.440;2022-12-26T01:38:55;8.90;99.90
52675;DHT22;38569;52.722;6.440;2022-12-26T01:41:21;8.80;99.90
52675;DHT22;38569;52.722;6.440;2022-12-26T01:43:56;8.80;99.90
52675;DHT22;38569;52.722;6.440;2022-12-26T01:49:00;8.90;99.90
52675;DHT22;38569;52.722;6.440;2022-12-26T01:51:30;8.90;99.90
52675;DHT22;38569;52.722;6.440;2022-12-26T01:53:59;8.80;99.90
52675;DHT22;38569;52.722;6.440;2022-12-26T01:56:30;8.90;99.90
52675;DHT22;38569;52.722;6.440;2022-12-26T01:59:04;8.80;99.90
52675;DHT22;38569;52.722;6.440;2022-12-26T02:01:32;8.90;99.90
52675;DHT22;38569;52.722;6.440;2022-12-26T02:04:01;9.00;99.90
52675;DHT22;38569;52.722;6.440;2022-12-26T02:06:48;8.90;99.90
52675;DHT22;38569;52.722;6.440;2022-12-26T02:09:15;8.90;99.90
52675;DHT22;38569;52.722;6.440;2022-12-26T02:11:49;8.90;99.90
52675;DHT22;38569;52.722;6.440;2022-12-26T02:14:16;8.90;99.90
52675;DHT22;38569;52.722;6.440;2022-12-26T02:16:42;8.80;99.90
52675;DHT22;38569;52.722;6.440;2022-12-26T02:39:08;9.00;99.90
52675;DHT22;38569;52.722;6.440;2022-12-26T02:41:47;8.90;99.90
52675;DHT22;38569;52.722;6.440;2022-12-26T02:44:38;9.00;99.90
52675;DHT22;38569;52.722;6.440;2022-12-26T02:47:29;9.00;99.90
52675;DHT22;38569;52.722;6.440;2022-12-26T02:55:55;9.10;99.90
52675;DHT22;38569;52.722;6.440;2022-12-26T02:58:56;9.00;99.90
52675;DHT22;38569;52.722;6.440;2022-12-26T03:01:44;9.00;99.90
52675;DHT22;38569;52.722;6.440;2022-12-26T03:04:32;9.00;99.90
52675;DHT22;38569;52.722;6.440;2022-12-26T03:07:25;9.00;99.90
52675;DHT22;38569;52.722;6.440;2022-12-26T03:10:32;9.10;99.90
52675;DHT22;38569;52.722;6.440;2022-12-26T03:13:30;9.10;99.90
52675;DHT22;38569;52.722;6.440;2022-12-26T03:16:08;9.00;99.90
52675;DHT22;38569;52.722;6.440;2022-12-26T03:18:57;9.00;99.90
52675;DHT22;38569;52.722;6.440;2022-12-26T03:21:27;9.10;99.90
52675;DHT22;38569;52.722;6.440;2022-12-26T03:23:54;9.00;99.90
52675;DHT22;38569;52.722;6.440;2022-12-26T03:26:34;9.10;99.90
52675;DHT22;38569;52.722;6.440;2022-12-26T03:29:16;9.10;99.90
52675;DHT22;38569;52.722;6.440;2022-12-26T03:32:04;9.10;99.90
52675;DHT22;38569;52.722;6.440;2022-12-26T03:34:30;9.00;99.90
52675;DHT22;38569;52.722;6.440;2022-12-26T03:46:10;9.10;99.90
52675;DHT22;38569;52.722;6.440;2022-12-26T03:49:07;9.10;99.90
52675;DHT22;38569;52.722;6.440;2022-12-26T03:57:49;9.00;99.90
52675;DHT22;38569;52.722;6.440;2022-12-26T04:00:37;9.00;99.90
52675;DHT22;38569;52.722;6.440;2022-12-26T04:03:39;9.10;99.90
52675;DHT22;38569;52.722;6.440;2022-12-26T04:06:31;9.00;99.90
52675;DHT22;38569;52.722;6.440;2022-12-26T04:09:30;9.00;99.90
52675;DHT22;38569;52.722;6.440;2022-12-26T04:12:26;9.00;99.90
52675;DHT22;38569;52.722;6.440;2022-12-26T04:15:23;8.90;99.90
52675;DHT22;38569;52.722;6.440;2022-12-26T04:18:22;8.90;99.90
52675;DHT22;38569;52.722;6.440;2022-12-26T04:21:21;9.00;99.90
52675;DHT22;38569;52.722;6.440;2022-12-26T04:24:22;9.00;99.90
52675;DHT22;38569;52.722;6.440;2022-12-26T04:27:09;8.90;99.90
52675;DHT22;38569;52.722;6.440;2022-12-26T04:29:55;8.90;99.90
52675;DHT22;38569;52.722;6.440;2022-12-26T04:32:45;8.90;99.90
52675;DHT22;38569;52.722;6.440;2022-12-26T04:35:52;8.90;99.90
52675;DHT22;38569;52.722;6.440;2022-12-26T04:38:45;8.90;99.90
52675;DHT22;38569;52.722;6.440;2022-12-26T04:41:32;8.80;99.90
52675;DHT22;38569;52.722;6.440;2022-12-26T04:44:18;8.80;99.90
52675;DHT22;38569;52.722;6.440;2022-12-26T04:46:47;8.80;99.90
52675;DHT22;38569;52.722;6.440;2022-12-26T04:49:15;8.70;99.90
52675;DHT22;38569;52.722;6.440;2022-12-26T04:52:02;8.70;99.90
52675;DHT22;38569;52.722;6.440;2022-12-26T04:54:28;8.70;99.90
52675;DHT22;38569;52.722;6.440;2022-12-26T04:56:54;8.70;99.90
52675;DHT22;38569;52.722;6.440;2022-12-26T04:59:20;8.80;99.90
52675;DHT22;38569;52.722;6.440;2022-12-26T05:01:46;8.70;99.90
52675;DHT22;38569;52.722;6.440;2022-12-26T05:04:31;8.60;99.90
52675;DHT22;38569;52.722;6.440;2022-12-26T05:07:20;8.70;99.90
52675;DHT22;38569;52.722;6.440;2022-12-26T05:10:07;8.60;99.90
52675;DHT22;38569;52.722;6.440;2022-12-26T05:12:34;8.60;99.90
52675;DHT22;38569;52.722;6.440;2022-12-26T05:14:59;8.50;99.90
52675;DHT22;38569;52.722;6.440;2022-12-26T05:17:25;8.60;99.90
52675;DHT22;38569;52.722;6.440;2022-12-26T05:20:11;8.50;99.90
52675;DHT22;38569;52.722;6.440;2022-12-26T05:22:55;8.50;99.90
52675;DHT22;38569;52.722;6.440;2022-12-26T05:25:42;8.50;99.90
52675;DHT22;38569;52.722;6.440;2022-12-26T05:28:28;8.50;99.90
52675;DHT22;38569;52.722;6.440;2022-12-26T05:31:10;8.60;99.90
52675;DHT22;38569;52.722;6.440;2022-12-26T05:33:36;8.60;99.90
52675;DHT22;38569;52.722;6.440;2022-12-26T05:36:22;8.50;99.90
52675;DHT22;38569;52.722;6.440;2022-12-26T05:38:49;8.60;99.90
52675;DHT22;38569;52.722;6.440;2022-12-26T05:41:16;8.60;99.90
52675;DHT22;38569;52.722;6.440;2022-12-26T05:43:41;8.70;99.90
52675;DHT22;38569;52.722;6.440;2022-12-26T05:46:07;8.60;99.90
52675;DHT22;38569;52.722;6.440;2022-12-26T05:48:33;8.70;99.90
52675;DHT22;38569;52.722;6.440;2022-12-26T05:51:00;8.70;99.90
52675;DHT22;38569;52.722;6.440;2022-12-26T05:53:26;8.60;99.90
52675;DHT22;38569;52.722;6.440;2022-12-26T05:55:52;8.60;99.90
52675;DHT22;38569;52.722;6.440;2022-12-26T05:58:18;8.60;99.90
52675;DHT22;38569;52.722;6.440;2022-12-26T06:00:44;8.60;99.90
52675;DHT22;38569;52.722;6.440;2022-12-26T06:03:09;8.70;99.90
52675;DHT22;38569;52.722;6.440;2022-12-26T06:05:35;8.60;99.90
52675;DHT22;38569;52.722;6.440;2022-12-26T06:08:01;8.70;99.90
52675;DHT22;38569;52.722;6.440;2022-12-26T06:10:27;8.60;99.90
52675;DHT22;38569;52.722;6.440;2022-12-26T06:12:55;8.70;99.90
52675;DHT22;38569;52.722;6.440;2022-12-26T06:15:21;8.70;99.90
52675;DHT22;38569;52.722;6.440;2022-12-26T06:17:47;8.70;99.90
52675;DHT22;38569;52.722;6.440;2022-12-26T06:20:12;8.70;99.90
52675;DHT22;38569;52.722;6.440;2022-12-26T06:22:38;8.70;99.90
52675;DHT22;38569;52.722;6.440;2022-12-26T06:25:04;8.80;99.90
52675;DHT22;38569;52.722;6.440;2022-12-26T06:27:30;8.80;99.90
52675;DHT22;38569;52.722;6.440;2022-12-26T06:29:56;8.80;99.90
52675;DHT22;38569;52.722;6.440;2022-12-26T06:32:21;8.70;99.90
52675;DHT22;38569;52.722;6.440;2022-12-26T06:34:47;8.80;99.90
52675;DHT22;38569;52.722;6.440;2022-12-26T06:37:13;8.80;99.90
52675;DHT22;38569;52.722;6.440;2022-12-26T06:39:39;8.80;99.90
52675;DHT22;38569;52.722;6.440;2022-12-26T06:42:04;8.80;99.90
52675;DHT22;38569;52.722;6.440;2022-12-26T06:44:30;8.80;99.90
52675;DHT22;38569;52.722;6.440;2022-12-26T06:46:56;8.80;99.90
52675;DHT22;38569;52.722;6.440;2022-12-26T06:49:21;8.80;99.90
52675;DHT22;38569;52.722;6.440;2022-12-26T06:51:50;8.80;99.90
52675;DHT22;38569;52.722;6.440;2022-12-26T06:54:16;8.70;99.90
52675;DHT22;38569;52.722;6.440;2022-12-26T06:56:42;8.60;99.90
52675;DHT22;38569;52.722;6.440;2022-12-26T06:59:10;8.70;99.90
52675;DHT22;38569;52.722;6.440;2022-12-26T07:01:36;8.60;99.90
52675;DHT22;38569;52.722;6.440;2022-12-26T07:04:02;8.50;99.90
52675;DHT22;38569;52.722;6.440;2022-12-26T07:06:36;8.50;99.90
52675;DHT22;38569;52.722;6.440;2022-12-26T07:09:08;8.40;99.90
52675;DHT22;38569;52.722;6.440;2022-12-26T07:11:37;8.40;99.90
52675;DHT22;38569;52.722;6.440;2022-12-26T07:14:03;8.30;99.90
52675;DHT22;38569;52.722;6.440;2022-12-26T07:16:29;8.30;99.90
52675;DHT22;38569;52.722;6.440;2022-12-26T07:18:57;8.30;99.90
52675;DHT22;38569;52.722;6.440;2022-12-26T07:21:23;8.30;99.90
52675;DHT22;38569;52.722;6.440;2022-12-26T07:23:49;8.40;99.90
52675;DHT22;38569;52.722;6.440;2022-12-26T07:26:15;8.40;99.90
52675;DHT22;38569;52.722;6.440;2022-12-26T07:28:41;8.40;99.90
52675;DHT22;38569;52.722;6.440;2022-12-26T07:31:07;8.30;99.90
52675;DHT22;38569;52.722;6.440;2022-12-26T07:33:33;8.30;99.90
52675;DHT22;38569;52.722;6.440;2022-12-26T07:36:04;8.30;99.90
52675;DHT22;38569;52.722;6.440;2022-12-26T07:38:31;8.30;99.90
52675;DHT22;38569;52.722;6.440;2022-12-26T07:40:57;8.30;99.90
52675;DHT22;38569;52.722;6.440;2022-12-26T07:43:23;8.30;99.90
52675;DHT22;38569;52.722;6.440;2022-12-26T07:45:50;8.30;99.90
52675;DHT22;38569;52.722;6.440;2022-12-26T07:48:16;8.30;99.90
52675;DHT22;38569;52.722;6.440;2022-12-26T07:50:42;8.30;99.90
52675;DHT22;38569;52.722;6.440;2022-12-26T07:53:12;8.40;99.90
52675;DHT22;38569;52.722;6.440;2022-12-26T07:55:38;8.30;99.90
52675;DHT22;38569;52.722;6.440;2022-12-26T07:58:04;8.40;99.90
52675;DHT22;38569;52.722;6.440;2022-12-26T08:00:29;8.40;99.90
52675;DHT22;38569;52.722;6.440;2022-12-26T08:02:55;8.50;99.90
52675;DHT22;38569;52.722;6.440;2022-12-26T08:05:21;8.40;99.90
52675;DHT22;38569;52.722;6.440;2022-12-26T08:07:47;8.40;99.90
52675;DHT22;38569;52.722;6.440;2022-12-26T08:10:13;8.50;99.90
52675;DHT22;38569;52.722;6.440;2022-12-26T08:12:39;8.50;99.90
52675;DHT22;38569;52.722;6.440;2022-12-26T08:15:05;8.40;99.90
52675;DHT22;38569;52.722;6.440;2022-12-26T08:17:31;8.50;99.90
52675;DHT22;38569;52.722;6.440;2022-12-26T08:19:57;8.40;99.90
52675;DHT22;38569;52.722;6.440;2022-12-26T08:22:23;8.50;99.90
52675;DHT22;38569;52.722;6.440;2022-12-26T08:24:49;8.50;99.90
52675;DHT22;38569;52.722;6.440;2022-12-26T08:27:14;8.50;99.90
52675;DHT22;38569;52.722;6.440;2022-12-26T08:29:40;8.60;99.90
52675;DHT22;38569;52.722;6.440;2022-12-26T08:32:06;8.60;99.90
52675;DHT22;38569;52.722;6.440;2022-12-26T08:34:33;8.70;99.90
52675;DHT22;38569;52.722;6.440;2022-12-26T08:36:59;8.80;99.90
52675;DHT22;38569;52.722;6.440;2022-12-26T08:39:25;8.90;99.90
52675;DHT22;38569;52.722;6.440;2022-12-26T08:41:51;8.90;99.90
52675;DHT22;38569;52.722;6.440;2022-12-26T08:44:16;9.00;99.90
52675;DHT22;38569;52.722;6.440;2022-12-26T08:46:43;9.00;99.90
52675;DHT22;38569;52.722;6.440;2022-12-26T08:49:09;9.10;99.90
52675;DHT22;38569;52.722;6.440;2022-12-26T08:51:35;9.10;99.90
52675;DHT22;38569;52.722;6.440;2022-12-26T08:54:00;9.20;99.90
52675;DHT22;38569;52.722;6.440;2022-12-26T08:56:26;9.20;99.90
52675;DHT22;38569;52.722;6.440;2022-12-26T08:58:53;9.30;99.90
52675;DHT22;38569;52.722;6.440;2022-12-26T09:01:22;9.30;99.90
52675;DHT22;38569;52.722;6.440;2022-12-26T09:03:55;9.40;99.90
52675;DHT22;38569;52.722;6.440;2022-12-26T09:06:21;9.40;99.90
52675;DHT22;38569;52.722;6.440;2022-12-26T09:08:48;9.40;99.90
52675;DHT22;38569;52.722;6.440;2022-12-26T09:11:17;9.40;99.90
52675;DHT22;38569;52.722;6.440;2022-12-26T09:13:43;9.50;99.90
52675;DHT22;38569;52.722;6.440;2022-12-26T09:18:37;9.50;99.90
52675;DHT22;38569;52.722;6.440;2022-12-26T09:21:05;9.40;99.90
52675;DHT22;38569;52.722;6.440;2022-12-26T09:23:31;9.50;99.90
52675;DHT22;38569;52.722;6.440;2022-12-26T09:26:06;9.40;99.90
52675;DHT22;38569;52.722;6.440;2022-12-26T09:28:33;9.40;99.90
52675;DHT22;38569;52.722;6.440;2022-12-26T09:31:03;9.50;99.90
52675;DHT22;38569;52.722;6.440;2022-12-26T09:33:30;9.50;99.90
52675;DHT22;38569;52.722;6.440;2022-12-26T09:35:58;9.50;99.90
52675;DHT22;38569;52.722;6.440;2022-12-26T09:38:24;9.60;99.90
52675;DHT22;38569;52.722;6.440;2022-12-26T09:49:21;9.70;99.90
52675;DHT22;38569;52.722;6.440;2022-12-26T09:51:54;9.70;99.90
52675;DHT22;38569;52.722;6.440;2022-12-26T09:54:43;9.80;99.90
52675;DHT22;38569;52.722;6.440;2022-12-26T09:57:22;9.80;99.90
52675;DHT22;38569;52.722;6.440;2022-12-26T09:59:56;9.80;99.90
52675;DHT22;38569;52.722;6.440;2022-12-26T10:02:24;9.70;99.90
52675;DHT22;38569;52.722;6.440;2022-12-26T10:04:51;9.60;99.90
52675;DHT22;38569;52.722;6.440;2022-12-26T10:07:35;9.50;99.90
52675;DHT22;38569;52.722;6.440;2022-12-26T10:10:10;9.40;99.90
52675;DHT22;38569;52.722;6.440;2022-12-26T10:16:16;9.00;99.90
52675;DHT22;38569;52.722;6.440;2022-12-26T10:18:55;8.70;99.90
52675;DHT22;38569;52.722;6.440;2022-12-26T10:21:34;8.40;99.90
52675;DHT22;38569;52.722;6.440;2022-12-26T10:24:15;8.30;99.90
52675;DHT22;38569;52.722;6.440;2022-12-26T10:26:58;8.20;99.90
52675;DHT22;38569;52.722;6.440;2022-12-26T10:29:28;8.30;99.90
52675;DHT22;38569;52.722;6.440;2022-12-26T10:31:57;8.60;99.90
52675;DHT22;38569;52.722;6.440;2022-12-26T10:34:42;9.00;99.90
52675;DHT22;38569;52.722;6.440;2022-12-26T10:37:29;9.80;99.90
52675;DHT22;38569;52.722;6.440;2022-12-26T10:42:49;11.20;99.90
52675;DHT22;38569;52.722;6.440;2022-12-26T10:45:33;11.00;99.90
52675;DHT22;38569;52.722;6.440;2022-12-26T10:48:00;10.70;99.90
52675;DHT22;38569;52.722;6.440;2022-12-26T10:50:31;10.30;99.90
52675;DHT22;38569;52.722;6.440;2022-12-26T10:53:02;9.80;99.90
52675;DHT22;38569;52.722;6.440;2022-12-26T10:55:31;9.40;99.90
52675;DHT22;38569;52.722;6.440;2022-12-26T10:58:02;9.10;99.90
52675;DHT22;38569;52.722;6.440;2022-12-26T11:00:28;8.90;99.90
52675;DHT22;38569;52.722;6.440;2022-12-26T11:03:03;8.70;99.90
52675;DHT22;38569;52.722;6.440;2022-12-26T11:05:29;8.50;99.90
52675;DHT22;38569;52.722;6.440;2022-12-26T11:10:39;8.40;99.90
52675;DHT22;38569;52.722;6.440;2022-12-26T11:13:17;8.30;99.90
52675;DHT22;38569;52.722;6.440;2022-12-26T11:15:50;8.30;99.90
52675;DHT22;38569;52.722;6.440;2022-12-26T11:21:28;8.30;99.90
52675;DHT22;38569;52.722;6.440;2022-12-26T11:24:16;8.30;99.90
52675;DHT22;38569;52.722;6.440;2022-12-26T11:26:43;8.10;99.90
52675;DHT22;38569;52.722;6.440;2022-12-26T11:29:11;7.90;99.90
52675;DHT22;38569;52.722;6.440;2022-12-26T11:31:39;8.00;99.90
52675;DHT22;38569;52.722;6.440;2022-12-26T11:34:15;8.00;99.90
52675;DHT22;38569;52.722;6.440;2022-12-26T11:36:48;8.00;99.90
52675;DHT22;38569;52.722;6.440;2022-12-26T11:39:26;7.80;99.90
52675;DHT22;38569;52.722;6.440;2022-12-26T11:41:53;7.70;99.90
52675;DHT22;38569;52.722;6.440;2022-12-26T11:44:29;7.70;99.90
52675;DHT22;38569;52.722;6.440;2022-12-26T11:52:36;7.70;99.90
52675;DHT22;38569;52.722;6.440;2022-12-26T12:03:21;7.70;99.90
52675;DHT22;38569;52.722;6.440;2022-12-26T12:05:54;7.80;99.90
52675;DHT22;38569;52.722;6.440;2022-12-26T12:08:43;7.90;99.90
52675;DHT22;38569;52.722;6.440;2022-12-26T12:14:13;8.30;99.90
52675;DHT22;38569;52.722;6.440;2022-12-26T12:17:57;8.10;99.90
52675;DHT22;38569;52.722;6.440;2022-12-26T12:22:54;7.80;99.90
52675;DHT22;38569;52.722;6.440;2022-12-26T12:31:21;7.50;99.90
52675;DHT22;38569;52.722;6.440;2022-12-26T12:42:40;7.20;99.90
52675;DHT22;38569;52.722;6.440;2022-12-26T12:51:07;6.80;99.90
52675;DHT22;38569;52.722;6.440;2022-12-26T13:00:07;6.50;99.90
52675;DHT22;38569;52.722;6.440;2022-12-26T13:02:56;6.50;99.90
52675;DHT22;38569;52.722;6.440;2022-12-26T13:08:17;6.50;99.90
52675;DHT22;38569;52.722;6.440;2022-12-26T13:10:56;6.60;99.90
52675;DHT22;38569;52.722;6.440;2022-12-26T13:13:26;6.60;99.90
52675;DHT22;38569;52.722;6.440;2022-12-26T13:15:59;6.60;99.90
52675;DHT22;38569;52.722;6.440;2022-12-26T13:18:33;6.60;99.90
52675;DHT22;38569;52.722;6.440;2022-12-26T13:21:10;6.50;99.90
52675;DHT22;38569;52.722;6.440;2022-12-26T13:23:48;6.40;99.90
52675;DHT22;38569;52.722;6.440;2022-12-26T13:32:00;6.30;99.90
52675;DHT22;38569;52.722;6.440;2022-12-26T13:34:26;6.30;99.90
52675;DHT22;38569;52.722;6.440;2022-12-26T13:36:54;6.30;99.90
52675;DHT22;38569;52.722;6.440;2022-12-26T13:44:51;6.20;99.90
52675;DHT22;38569;52.722;6.440;2022-12-26T13:47:43;6.20;99.90
52675;DHT22;38569;52.722;6.440;2022-12-26T13:55:51;6.20;99.90
52675;DHT22;38569;52.722;6.440;2022-12-26T14:04:14;6.20;99.90
52675;DHT22;38569;52.722;6.440;2022-12-26T14:09:20;6.20;99.90
52675;DHT22;38569;52.722;6.440;2022-12-26T14:12:25;6.30;99.90
52675;DHT22;38569;52.722;6.440;2022-12-26T14:18:22;6.10;99.90
52675;DHT22;38569;52.722;6.440;2022-12-26T14:20:57;6.00;99.90
52675;DHT22;38569;52.722;6.440;2022-12-26T14:23:42;6.00;99.90
52675;DHT22;38569;52.722;6.440;2022-12-26T14:40:26;6.00;99.90
52675;DHT22;38569;52.722;6.440;2022-12-26T14:45:38;5.90;99.90
52675;DHT22;38569;52.722;6.440;2022-12-26T14:58:40;5.70;99.90
52675;DHT22;38569;52.722;6.440;2022-12-26T15:14:06;5.30;99.90
52675;DHT22;38569;52.722;6.440;2022-12-26T15:17:03;5.30;99.90
52675;DHT22;38569;52.722;6.440;2022-12-26T15:30:20;5.20;99.90
52675;DHT22;38569;52.722;6.440;2022-12-26T15:33:07;5.20;99.90
52675;DHT22;38569;52.722;6.440;2022-12-26T15:35:52;5.20;99.90
52675;DHT22;38569;52.722;6.440;2022-12-26T15:38:32;5.20;99.90
52675;DHT22;38569;52.722;6.440;2022-12-26T15:41:30;5.30;99.90
52675;DHT22;38569;52.722;6.440;2022-12-26T15:46:43;5.30;99.90
52675;DHT22;38569;52.722;6.440;2022-12-26T15:51:59;5.20;99.90
52675;DHT22;38569;52.722;6.440;2022-12-26T15:54:58;5.20;99.90
52675;DHT22;38569;52.722;6.440;2022-12-26T15:57:55;5.10;99.90
52675;DHT22;38569;52.722;6.440;2022-12-26T16:00:34;5.00;99.90
52675;DHT22;38569;52.722;6.440;2022-12-26T16:16:36;4.80;99.90
52675;DHT22;38569;52.722;6.440;2022-12-26T16:19:25;4.80;99.90
52675;DHT22;38569;52.722;6.440;2022-12-26T16:21:56;4.80;99.90
52675;DHT22;38569;52.722;6.440;2022-12-26T16:24:42;4.70;99.90
52675;DHT22;38569;52.722;6.440;2022-12-26T16:27:14;4.70;99.90
52675;DHT22;38569;52.722;6.440;2022-12-26T16:29:49;4.60;99.90
52675;DHT22;38569;52.722;6.440;2022-12-26T16:32:18;4.60;99.90
52675;DHT22;38569;52.722;6.440;2022-12-26T16:34:45;4.50;99.90
52675;DHT22;38569;52.722;6.440;2022-12-26T16:37:23;4.50;99.90
52675;DHT22;38569;52.722;6.440;2022-12-26T16:40:17;4.50;99.90
52675;DHT22;38569;52.722;6.440;2022-12-26T16:42:52;4.50;99.90
52675;DHT22;38569;52.722;6.440;2022-12-26T16:45:24;4.40;99.90
52675;DHT22;38569;52.722;6.440;2022-12-26T16:47:51;4.40;99.90
52675;DHT22;38569;52.722;6.440;2022-12-26T16:50:20;4.40;99.90
52675;DHT22;38569;52.722;6.440;2022-12-26T16:52:46;4.30;99.90
52675;DHT22;38569;52.722;6.440;2022-12-26T16:55:22;4.30;99.90
52675;DHT22;38569;52.722;6.440;2022-12-26T16:57:49;4.30;99.90
52675;DHT22;38569;52.722;6.440;2022-12-26T17:00:17;4.20;99.90
52675;DHT22;38569;52.722;6.440;2022-12-26T17:02:46;4.20;99.90
52675;DHT22;38569;52.722;6.440;2022-12-26T17:05:23;4.20;99.90
52675;DHT22;38569;52.722;6.440;2022-12-26T17:07:51;4.20;99.90
52675;DHT22;38569;52.722;6.440;2022-12-26T17:10:31;4.10;99.90
52675;DHT22;38569;52.722;6.440;2022-12-26T17:13:05;4.10;99.90
52675;DHT22;38569;52.722;6.440;2022-12-26T17:15:36;4.20;99.90
52675;DHT22;38569;52.722;6.440;2022-12-26T17:18:44;4.10;99.90
52675;DHT22;38569;52.722;6.440;2022-12-26T17:23:41;4.10;99.90
52675;DHT22;38569;52.722;6.440;2022-12-26T17:26:22;4.10;99.90
52675;DHT22;38569;52.722;6.440;2022-12-26T17:28:49;4.10;99.90
52675;DHT22;38569;52.722;6.440;2022-12-26T17:31:33;4.10;99.90
52675;DHT22;38569;52.722;6.440;2022-12-26T17:34:11;4.00;99.90
52675;DHT22;38569;52.722;6.440;2022-12-26T17:36:37;4.00;99.90
52675;DHT22;38569;52.722;6.440;2022-12-26T17:39:30;3.90;99.90
52675;DHT22;38569;52.722;6.440;2022-12-26T17:41:58;3.90;99.90
52675;DHT22;38569;52.722;6.440;2022-12-26T17:44:44;3.90;99.90
52675;DHT22;38569;52.722;6.440;2022-12-26T17:49:45;3.90;99.90
52675;DHT22;38569;52.722;6.440;2022-12-26T17:52:12;3.90;99.90
52675;DHT22;38569;52.722;6.440;2022-12-26T17:54:38;3.80;99.90
52675;DHT22;38569;52.722;6.440;2022-12-26T17:57:04;3.70;99.90
52675;DHT22;38569;52.722;6.440;2022-12-26T17:59:30;3.80;99.90
52675;DHT22;38569;52.722;6.440;2022-12-26T18:01:56;3.70;99.90
52675;DHT22;38569;52.722;6.440;2022-12-26T18:04:22;3.70;99.90
52675;DHT22;38569;52.722;6.440;2022-12-26T18:06:48;3.70;99.90
52675;DHT22;38569;52.722;6.440;2022-12-26T18:09:26;3.70;99.90
52675;DHT22;38569;52.722;6.440;2022-12-26T18:11:52;3.70;99.90
52675;DHT22;38569;52.722;6.440;2022-12-26T18:14:18;3.70;99.90
52675;DHT22;38569;52.722;6.440;2022-12-26T18:16:44;3.70;99.90
52675;DHT22;38569;52.722;6.440;2022-12-26T18:19:13;3.70;99.90
52675;DHT22;38569;52.722;6.440;2022-12-26T18:21:40;3.70;99.90
52675;DHT22;38569;52.722;6.440;2022-12-26T18:24:06;3.60;99.90
52675;DHT22;38569;52.722;6.440;2022-12-26T18:26:31;3.60;99.90
52675;DHT22;38569;52.722;6.440;2022-12-26T18:28:57;3.60;99.90
52675;DHT22;38569;52.722;6.440;2022-12-26T18:31:24;3.60;99.90
52675;DHT22;38569;52.722;6.440;2022-12-26T18:33:51;3.60;99.90
52675;DHT22;38569;52.722;6.440;2022-12-26T18:36:17;3.70;99.90
52675;DHT22;38569;52.722;6.440;2022-12-26T18:38:44;3.70;99.90
52675;DHT22;38569;52.722;6.440;2022-12-26T18:41:14;3.70;99.90
52675;DHT22;38569;52.722;6.440;2022-12-26T18:43:40;3.70;99.90
52675;DHT22;38569;52.722;6.440;2022-12-26T18:46:18;3.60;99.90
52675;DHT22;38569;52.722;6.440;2022-12-26T18:48:45;3.60;99.90
52675;DHT22;38569;52.722;6.440;2022-12-26T18:51:11;3.60;99.90
52675;DHT22;38569;52.722;6.440;2022-12-26T18:53:37;3.60;99.90
52675;DHT22;38569;52.722;6.440;2022-12-26T18:56:03;3.60;99.90
52675;DHT22;38569;52.722;6.440;2022-12-26T18:58:30;3.60;99.90
52675;DHT22;38569;52.722;6.440;2022-12-26T19:01:02;3.60;99.90
52675;DHT22;38569;52.722;6.440;2022-12-26T19:03:28;3.50;99.90
52675;DHT22;38569;52.722;6.440;2022-12-26T19:05:53;3.50;99.90
52675;DHT22;38569;52.722;6.440;2022-12-26T19:08:19;3.50;99.90
52675;DHT22;38569;52.722;6.440;2022-12-26T19:10:45;3.60;99.90
52675;DHT22;38569;52.722;6.440;2022-12-26T19:13:12;3.60;99.90
52675;DHT22;38569;52.722;6.440;2022-12-26T19:15:38;3.60;99.90
52675;DHT22;38569;52.722;6.440;2022-12-26T19:18:08;3.60;99.90
52675;DHT22;38569;52.722;6.440;2022-12-26T19:20:34;3.60;99.90
52675;DHT22;38569;52.722;6.440;2022-12-26T19:23:00;3.60;99.90
52675;DHT22;38569;52.722;6.440;2022-12-26T19:25:26;3.60;99.90
52675;DHT22;38569;52.722;6.440;2022-12-26T19:27:52;3.60;99.90
52675;DHT22;38569;52.722;6.440;2022-12-26T19:30:19;3.60;99.90
52675;DHT22;38569;52.722;6.440;2022-12-26T19:32:45;3.60;99.90
52675;DHT22;38569;52.722;6.440;2022-12-26T19:35:13;3.60;99.90
52675;DHT22;38569;52.722;6.440;2022-12-26T19:37:39;3.60;99.90
52675;DHT22;38569;52.722;6.440;2022-12-26T19:40:06;3.60;99.90
52675;DHT22;38569;52.722;6.440;2022-12-26T19:42:32;3.50;99.90
52675;DHT22;38569;52.722;6.440;2022-12-26T19:45:08;3.50;99.90
52675;DHT22;38569;52.722;6.440;2022-12-26T19:47:34;3.50;99.90
52675;DHT22;38569;52.722;6.440;2022-12-26T19:50:00;3.50;99.90
52675;DHT22;38569;52.722;6.440;2022-12-26T19:52:26;3.50;99.90
52675;DHT22;38569;52.722;6.440;2022-12-26T19:54:52;3.50;99.90
52675;DHT22;38569;52.722;6.440;2022-12-26T19:57:17;3.60;99.90